Alhena — C6ZP3 — position and weather

sailwx.info

Track history (hours):
 
Tides and Currents Weather Stations Pressure Air Temp Water Temp Dewpoint Dewpoint Depression Visibility Wind Speed Wind Dir Waves Ship Positions

Alhena

Last reported at 2018-Apr-22 04:59 UTC. Time now 2018-Apr-24 14:44 UTC.
Position N 27°40' W 015°12'.

Length 182 m; draft 10 m.

Type: Tanker. MMSI: 311061900.

Date/timePositionNaut miles runAvg speedWind from/ knotsBaromVisibWave heightAir tempDewpointWater temp
2018-Apr-22 04:59N 27°40' W 015°12'712.8
2018-Apr-22 04:27N 27°46' W 015°09'612.9
2018-Apr-22 04:00N 27°51' W 015°07'612.7
2018-Apr-22 03:30N 27°57' W 015°04'713.0
2018-Apr-22 02:59N 28°04' W 015°02'612.8
2018-Apr-22 02:30N 28°10' W 014°60'612.9
2018-Apr-22 02:00N 28°16' W 014°57'613.0
2018-Apr-22 01:30N 28°21' W 014°54'712.8
2018-Apr-22 00:59N 28°28' W 014°51'612.4
2018-Apr-22 00:29N 28°33' W 014°48'  
2018-Apr-19 16:32N 35°58' W 005°32'111.4
2018-Apr-19 16:28N 35°59' W 005°31'511.2
2018-Apr-19 16:00N 36°01' W 005°25'4 7.8
2018-Apr-19 15:30N 36°04' W 005°22'1 1.6
2018-Apr-19 15:00N 36°05' W 005°23'0 0.9
2018-Apr-19 14:30N 36°04' W 005°23'1 1.2
2018-Apr-19 14:00N 36°05' W 005°22'5 8.8
2018-Apr-19 13:29N 36°05' W 005°16'21811.7
2018-Apr-18 18:49N 36°40' W 000°50'412.0
2018-Apr-18 18:30N 36°41' W 000°45'1112.2
2018-Apr-18 17:38N 36°45' W 000°33'212.5
2018-Apr-18 17:29N 36°45' W 000°30'612.6
2018-Apr-18 16:59N 36°47' W 000°23'712.6
2018-Apr-18 16:25N 36°50' W 000°14'512.6
2018-Apr-18 16:00N 36°51' W 000°08'612.5
2018-Apr-18 15:29N 36°54' W 000°01'611.9
2018-Apr-18 15:00N 36°55' E 000°06'611.8
2018-Apr-18 14:30N 36°57' E 000°13'612.0
2018-Apr-18 14:00N 36°59' E 000°20'611.7
2018-Apr-18 13:30N 37°01' E 000°27'611.4
2018-Apr-18 13:00N 37°02' E 000°34'611.4
2018-Apr-18 12:30N 37°04' E 000°41'611.5
2018-Apr-18 12:00N 37°05' E 000°48'  
2018-Apr-16 07:48N 36°60' E 013°29'6311.6
2018-Apr-16 02:22N 36°29' E 014°37'  
2018-Apr-13 13:12N 33°33' E 029°24'211.6
2018-Apr-13 13:00N 33°32' E 029°27'611.7
2018-Apr-13 12:30N 33°30' E 029°33'2112.2
2018-Apr-13 10:50N 33°23' E 029°56'412.7
2018-Apr-13 10:30N 33°22' E 030°01'3613.0
2018-Apr-13 07:45N 33°09' E 030°41'313.3
2018-Apr-13 07:30N 33°08' E 030°45'713.0
2018-Apr-13 07:00N 33°05' E 030°52'3712.8
2018-Apr-13 04:05N 32°52' E 031°34'112.6
2018-Apr-13 04:00N 32°52' E 031°35'2312.8
2018-Apr-13 02:12N 32°44' E 032°00'4412.8
2018-Apr-12 22:46N 32°28' E 032°49'413.0
2018-Apr-12 22:27N 32°27' E 032°54'3912.3
2018-Apr-12 19:17N 32°13' E 033°37'1712.8
2018-Apr-12 17:58N 32°07' E 033°55'812.8
2018-Apr-12 17:23N 32°04' E 034°03'1412.6
2018-Apr-12 16:14N 31°58' E 034°19'312.7
2018-Apr-12 16:00N 31°56' E 034°22'712.5
2018-Apr-12 15:27N 31°53' E 034°29'512.1
2018-Apr-12 15:00N 31°52' E 034°35'2 3.4
2018-Apr-12 14:27N 31°52' E 034°38'0 0.5
2018-Apr-12 13:59N 31°52' E 034°38'0 0.7
2018-Apr-12 13:29N 31°51' E 034°38'  
Track history (hours):
 
Tides and Currents Weather Stations Pressure Air Temp Water Temp Dewpoint Dewpoint Depression Visibility Wind Speed Wind Dir Waves Ship Positions

Alhena

Last reported at 2018-Apr-22 04:59 UTC. Time now 2018-Apr-24 14:44 UTC.
Position N 27°40' W 015°12'.

Length 182 m; draft 10 m.

Type: Tanker. MMSI: 311061900.

Date/timePositionNaut miles runAvg speedWind from/ knotsBaromVisibWave heightAir tempDewpointWater temp
2018-Apr-22 04:59N 27°40' W 015°12'712.8
2018-Apr-22 04:27N 27°46' W 015°09'612.9
2018-Apr-22 04:00N 27°51' W 015°07'612.7
2018-Apr-22 03:30N 27°57' W 015°04'713.0
2018-Apr-22 02:59N 28°04' W 015°02'612.8
2018-Apr-22 02:30N 28°10' W 014°60'612.9
2018-Apr-22 02:00N 28°16' W 014°57'613.0
2018-Apr-22 01:30N 28°21' W 014°54'712.8
2018-Apr-22 00:59N 28°28' W 014°51'612.4
2018-Apr-22 00:29N 28°33' W 014°48'  
2018-Apr-19 16:32N 35°58' W 005°32'111.4
2018-Apr-19 16:28N 35°59' W 005°31'511.2
2018-Apr-19 16:00N 36°01' W 005°25'4 7.8
2018-Apr-19 15:30N 36°04' W 005°22'1 1.6
2018-Apr-19 15:00N 36°05' W 005°23'0 0.9
2018-Apr-19 14:30N 36°04' W 005°23'1 1.2
2018-Apr-19 14:00N 36°05' W 005°22'5 8.8
2018-Apr-19 13:29N 36°05' W 005°16'21811.7
2018-Apr-18 18:49N 36°40' W 000°50'412.0
2018-Apr-18 18:30N 36°41' W 000°45'1112.2
2018-Apr-18 17:38N 36°45' W 000°33'212.5
2018-Apr-18 17:29N 36°45' W 000°30'612.6
2018-Apr-18 16:59N 36°47' W 000°23'712.6
2018-Apr-18 16:25N 36°50' W 000°14'512.6
2018-Apr-18 16:00N 36°51' W 000°08'612.5
2018-Apr-18 15:29N 36°54' W 000°01'611.9
2018-Apr-18 15:00N 36°55' E 000°06'611.8
2018-Apr-18 14:30N 36°57' E 000°13'612.0
2018-Apr-18 14:00N 36°59' E 000°20'611.7
2018-Apr-18 13:30N 37°01' E 000°27'611.4
2018-Apr-18 13:00N 37°02' E 000°34'611.4
2018-Apr-18 12:30N 37°04' E 000°41'611.5
2018-Apr-18 12:00N 37°05' E 000°48'  
2018-Apr-16 07:48N 36°60' E 013°29'6311.6
2018-Apr-16 02:22N 36°29' E 014°37'  
2018-Apr-13 13:12N 33°33' E 029°24'211.6
2018-Apr-13 13:00N 33°32' E 029°27'611.7
2018-Apr-13 12:30N 33°30' E 029°33'2112.2
2018-Apr-13 10:50N 33°23' E 029°56'412.7
2018-Apr-13 10:30N 33°22' E 030°01'3613.0
2018-Apr-13 07:45N 33°09' E 030°41'313.3
2018-Apr-13 07:30N 33°08' E 030°45'713.0
2018-Apr-13 07:00N 33°05' E 030°52'3712.8
2018-Apr-13 04:05N 32°52' E 031°34'112.6
2018-Apr-13 04:00N 32°52' E 031°35'2312.8
2018-Apr-13 02:12N 32°44' E 032°00'4412.8
2018-Apr-12 22:46N 32°28' E 032°49'413.0
2018-Apr-12 22:27N 32°27' E 032°54'3912.3
2018-Apr-12 19:17N 32°13' E 033°37'1712.8
2018-Apr-12 17:58N 32°07' E 033°55'812.8
2018-Apr-12 17:23N 32°04' E 034°03'1412.6
2018-Apr-12 16:14N 31°58' E 034°19'312.7
2018-Apr-12 16:00N 31°56' E 034°22'712.5
2018-Apr-12 15:27N 31°53' E 034°29'512.1
2018-Apr-12 15:00N 31°52' E 034°35'2 3.4
2018-Apr-12 14:27N 31°52' E 034°38'0 0.5
2018-Apr-12 13:59N 31°52' E 034°38'0 0.7
2018-Apr-12 13:29N 31°51' E 034°38'  

Dump ship's entire track history